Time;durP1;ratioP1;P1;durP2;ratioP2;P2;SDS_P1;SDS_P2;PMS_P1;PMS_P2;Temp;Humidity;BMP_temperature;BMP_pressure;BME280_temperature;BME280_humidity;BME280_pressure;Samples;Min_cycle;Max_cycle;Signal;HPM_P1;HPM_P2
2021/06/15 00:00:11;;;;;;;1.17;1.08;;;25.50;45.00;;;29.24;30.27;101559.56;5155832;27;20043;-52
2021/06/15 00:02:37;;;;;;;1.27;1.17;;;25.50;45.00;;;29.26;30.08;101572.91;5156059;27;20059;-47
2021/06/15 00:05:04;;;;;;;1.48;1.38;;;25.50;45.00;;;29.23;30.19;101559.69;5137509;27;20050;-53
2021/06/15 00:07:30;;;;;;;1.40;1.30;;;25.50;45.00;;;29.21;30.20;101561.69;5155949;27;20043;-53
2021/06/15 00:09:55;;;;;;;1.15;1.10;;;25.50;45.00;;;29.23;30.06;101568.63;5155855;27;20046;-51
2021/06/15 00:12:21;;;;;;;1.10;1.00;;;25.40;45.00;;;29.21;30.25;101564.38;5155861;27;20483;-48
2021/06/15 00:14:47;;;;;;;1.40;1.30;;;25.40;45.00;;;29.21;30.25;101569.75;5156070;27;20547;-54
2021/06/15 00:17:13;;;;;;;1.10;1.00;;;25.40;45.10;;;29.18;30.38;101560.09;5155822;27;20038;-52
2021/06/15 00:19:39;;;;;;;1.15;1.05;;;25.40;45.10;;;29.16;30.52;101559.34;5155553;27;20043;-52
2021/06/15 00:22:04;;;;;;;1.33;1.20;;;25.40;45.20;;;29.14;30.21;101546.00;5137145;27;20461;-51
2021/06/15 00:24:30;;;;;;;1.35;1.25;;;25.40;45.20;;;29.17;30.20;101558.41;5155777;27;20054;-51
2021/06/15 00:26:56;;;;;;;1.35;1.25;;;25.40;45.20;;;29.14;30.41;101553.25;5155676;27;20556;-49
2021/06/15 00:29:22;;;;;;;1.10;1.00;;;25.40;45.30;;;29.14;30.59;101558.63;5155302;27;20050;-51
2021/06/15 00:31:47;;;;;;;1.48;1.38;;;25.40;45.30;;;29.14;30.25;101569.41;5155580;27;20043;-51
2021/06/15 00:34:13;;;;;;;1.40;1.30;;;25.40;45.30;;;29.12;30.49;101565.97;5155979;27;20051;-51
2021/06/15 00:36:39;;;;;;;1.30;1.20;;;25.40;45.80;;;29.08;30.34;101567.22;5155398;27;20142;-54
2021/06/15 00:39:05;;;;;;;1.67;1.50;;;25.30;45.20;;;29.08;30.52;101568.06;5155356;27;20038;-49
2021/06/15 00:41:31;;;;;;;1.55;1.30;;;25.30;45.30;;;29.08;30.24;101568.06;5136786;27;20436;-52
2021/06/15 00:43:57;;;;;;;1.75;1.60;;;25.30;45.30;;;29.07;30.49;101560.13;5155561;27;20041;-54
2021/06/15 00:46:23;;;;;;;1.40;1.30;;;25.30;45.30;;;29.05;30.63;101554.88;5155288;27;20047;-51
2021/06/15 00:48:49;;;;;;;1.13;1.00;;;25.30;45.40;;;29.03;30.69;101562.22;5155345;27;20106;-50
2021/06/15 00:51:16;;;;;;;1.30;1.20;;;25.30;45.40;;;29.05;30.63;101559.41;5155718;27;20046;-49
2021/06/15 00:53:42;;;;;;;1.58;1.35;;;25.30;45.40;;;29.01;30.75;101559.66;5118803;27;20649;-54
2021/06/15 00:56:08;;;;;;;1.35;1.13;;;25.20;45.40;;;28.99;30.46;101567.03;5118656;27;20066;-52
2021/06/15 00:58:35;;;;;;;1.85;1.35;;;25.30;45.50;;;29.01;30.50;101572.28;5154968;27;20051;-50
2021/06/15 01:01:07;;;;;;;1.55;1.45;;;25.20;45.40;;;28.99;30.40;101569.72;5136938;27;20433;-53
2021/06/15 01:03:34;;;;;;;1.50;1.40;;;25.20;45.50;;;28.99;30.82;101567.03;5154986;27;20058;-52
2021/06/15 01:06:06;;;;;;;2.00;1.45;;;25.20;45.50;;;28.98;30.39;101569.84;5135856;27;20055;-52
2021/06/15 01:08:51;;;;;;;1.52;1.30;;;25.20;45.50;;;28.95;30.49;101578.19;5136538;27;20066;-54
2021/06/15 01:12:03;;;;;;;1.10;1.10;;;25.20;45.60;;;28.94;30.44;101576.50;5120024;27;20046;-53
2021/06/15 01:14:56;;;;;;;1.38;1.27;;;25.20;45.60;;;28.94;30.81;101582.72;5119436;27;20050;-49
2021/06/15 01:17:38;;;;;;;1.30;1.20;;;25.20;45.60;;;28.92;30.48;101582.00;5116885;27;20500;-49
2021/06/15 01:20:18;;;;;;;2.50;1.60;;;25.20;45.60;;;28.93;30.63;101583.69;5134574;27;20047;-49
2021/06/15 01:22:53;;;;;;;1.30;1.20;;;25.20;45.60;;;28.94;30.54;101579.19;5154707;27;20066;-51
2021/06/15 01:25:37;;;;;;;1.30;1.20;;;25.20;45.70;;;28.89;30.84;101573.34;5118628;27;20050;-53
2021/06/15 01:28:12;;;;;;;2.00;1.60;;;25.20;45.70;;;28.87;30.94;101567.22;5119161;27;21052;-50
2021/06/15 01:31:05;;;;;;;1.20;1.10;;;25.10;45.70;;;28.83;30.80;101559.44;5119288;27;20067;-50
2021/06/15 01:33:38;;;;;;;1.30;1.20;;;25.10;45.70;;;28.87;30.82;101569.91;5134699;27;20043;-51
2021/06/15 01:36:07;;;;;;;1.52;1.27;;;25.10;45.70;;;28.86;31.00;101565.53;5154964;27;20484;-51
2021/06/15 01:38:45;;;;;;;1.70;1.60;;;25.10;45.70;;;28.86;30.59;101562.84;5134991;27;20043;-49
2021/06/15 01:41:15;;;;;;;1.35;1.25;;;25.10;45.80;;;28.84;31.00;101557.56;5118896;27;20072;-50
2021/06/15 01:43:58;;;;;;;1.65;1.40;;;25.10;45.80;;;28.85;30.80;101571.88;5134090;27;20054;-52
2021/06/15 01:46:29;;;;;;;1.77;1.23;;;25.10;45.80;;;28.80;31.00;101565.06;5118435;27;20034;-50
2021/06/15 01:49:04;;;;;;;1.52;1.42;;;25.10;45.80;;;28.83;31.00;101569.31;5103712;27;20057;-53
2021/06/15 01:51:33;;;;;;;1.20;1.10;;;25.10;45.90;;;28.81;30.64;101568.59;5134253;27;20506;-53
2021/06/15 01:54:09;;;;;;;1.30;1.20;;;25.00;45.80;;;28.81;30.96;101560.53;5135916;27;20050;-51
2021/06/15 01:56:42;;;;;;;1.30;1.20;;;25.00;45.90;;;28.79;31.06;101565.19;5154153;27;20051;-51
2021/06/15 01:59:14;;;;;;;1.40;1.30;;;25.00;45.90;;;28.77;31.09;101565.31;5135762;27;20046;-51
2021/06/15 02:01:46;;;;;;;1.58;1.40;;;25.00;45.90;;;28.76;31.11;101566.28;5136195;27;20042;-54
2021/06/15 02:04:18;;;;;;;1.40;1.25;;;25.00;45.90;;;28.78;30.63;101585.84;5117881;27;20496;-49
2021/06/15 02:06:46;;;;;;;1.52;1.40;;;25.00;46.00;;;28.74;30.93;101589.78;5118799;27;20043;-48
2021/06/15 02:09:14;;;;;;;1.40;1.30;;;25.00;46.00;;;28.74;31.23;101594.34;5154101;27;20115;-49
2021/06/15 02:11:50;;;;;;;1.58;1.30;;;25.00;46.00;;;28.75;30.82;101596.91;5119851;27;20424;-50
2021/06/15 02:14:46;;;;;;;1.42;1.33;;;25.00;46.00;;;28.72;31.19;101599.84;5054974;27;20072;-52
2021/06/15 02:17:32;;;;;;;1.25;1.15;;;25.00;46.00;;;28.70;30.89;101600.94;5138592;27;20126;-51
2021/06/15 02:20:11;;;;;;;1.33;1.20;;;25.00;46.10;;;28.73;31.04;101616.84;5134761;27;20369;-54
2021/06/15 02:22:53;;;;;;;1.20;1.10;;;25.00;46.10;;;28.67;31.20;101612.81;5135271;27;20403;-53
2021/06/15 02:25:25;;;;;;;1.70;1.60;;;24.90;46.10;;;28.70;30.90;101620.66;5154013;27;20038;-48
2021/06/15 02:27:54;;;;;;;1.40;1.30;;;24.90;46.10;;;28.72;31.25;101621.38;5135633;27;20043;-51
2021/06/15 02:30:23;;;;;;;1.30;1.20;;;24.90;46.10;;;28.69;30.81;101618.94;5154414;27;20050;-52
2021/06/15 02:33:02;;;;;;;1.40;1.30;;;24.90;46.10;;;28.69;30.89;101626.16;5118140;27;20149;-51
2021/06/15 02:35:29;;;;;;;1.50;1.40;;;24.90;46.10;;;28.71;31.15;101626.88;5153853;27;20057;-47
2021/06/15 02:38:32;;;;;;;1.50;1.40;;;24.90;46.20;;;28.69;30.99;101628.84;5135123;27;20051;-49
2021/06/15 02:41:09;;;;;;;1.40;1.30;;;24.90;46.20;;;28.67;30.87;101634.34;5106273;27;20100;-49
2021/06/15 02:43:38;;;;;;;1.40;1.30;;;24.90;46.20;;;28.68;31.08;101632.50;5117429;27;20050;-52
2021/06/15 02:46:08;;;;;;;1.42;1.23;;;24.90;46.80;;;28.67;31.04;101637.03;5157825;27;20051;-50
2021/06/15 02:48:38;;;;;;;1.25;1.15;;;24.90;46.20;;;28.64;31.16;101635.44;5138540;27;20082;-50
2021/06/15 02:51:07;;;;;;;1.73;1.58;;;24.90;46.20;;;28.66;30.97;101643.41;5121673;27;20054;-48
2021/06/15 02:53:43;;;;;;;1.35;1.25;;;24.90;46.30;;;28.63;30.88;101644.53;5138660;27;20042;-48
2021/06/15 02:56:17;;;;;;;1.42;1.33;;;24.80;46.20;;;28.61;31.29;101640.22;5121567;27;20047;-52
2021/06/15 02:58:44;;;;;;;1.40;1.30;;;24.80;46.30;;;28.64;31.25;101648.91;5137306;27;20126;-47
2021/06/15 03:01:10;;;;;;;1.30;1.20;;;24.80;46.30;;;28.61;31.26;101641.09;5154388;27;20539;-51
2021/06/15 03:03:43;;;;;;;1.67;1.20;;;24.80;46.30;;;28.60;31.32;101641.19;5157156;27;20050;-52
2021/06/15 03:06:09;;;;;;;1.77;1.45;;;24.80;46.30;;;28.57;31.15;101641.47;5154763;27;20053;-52
2021/06/15 03:08:35;;;;;;;1.65;1.30;;;24.80;46.30;;;28.59;31.35;101639.50;5137935;27;20484;-48
2021/06/15 03:11:06;;;;;;;1.35;1.25;;;24.80;46.30;;;28.56;31.26;101650.53;5138236;27;20043;-47
2021/06/15 03:13:50;;;;;;;2.67;1.38;;;24.80;46.40;;;28.53;31.18;101643.50;5157171;27;20103;-47
2021/06/15 03:16:22;;;;;;;1.75;1.50;;;24.80;46.40;;;28.56;31.14;101651.38;5138281;27;20228;-54
2021/06/15 03:19:13;;;;;;;2.47;1.50;;;24.80;46.40;;;28.54;31.38;101663.22;5157458;27;20047;-50
2021/06/15 03:21:59;;;;;;;1.42;1.30;;;24.80;46.40;;;28.52;31.39;101659.78;5156930;27;20043;-49
2021/06/15 03:24:28;;;;;;;1.10;1.00;;;24.80;46.50;;;28.54;31.40;101664.06;5121030;27;20053;-46
2021/06/15 03:27:07;;;;;;;1.60;1.40;;;24.80;46.50;;;28.52;31.43;101668.72;5137768;27;20515;-49
2021/06/15 03:29:42;;;;;;;1.30;1.20;;;24.80;46.50;;;28.54;31.21;101668.59;5122273;27;20137;-48
2021/06/15 03:32:12;;;;;;;1.50;1.30;;;24.80;46.50;;;28.52;31.35;101671.41;5121024;27;20058;-46
2021/06/15 03:34:50;;;;;;;1.50;1.30;;;24.70;46.50;;;28.50;31.25;101667.13;5137777;27;20059;-45
2021/06/15 03:37:24;;;;;;;1.58;1.48;;;24.70;46.50;;;28.51;31.43;101674.22;5136073;27;20054;-49
2021/06/15 03:39:56;;;;;;;1.35;1.25;;;24.70;46.50;;;28.50;31.43;101678.75;5138022;27;20053;-51
2021/06/15 03:42:28;;;;;;;1.65;1.55;;;24.70;46.50;;;28.44;31.22;101682.78;5120595;27;20046;-48
2021/06/15 03:45:04;;;;;;;1.30;1.20;;;24.70;46.50;;;28.49;31.63;101686.97;5138233;27;20042;-51
2021/06/15 03:47:33;;;;;;;1.50;1.40;;;24.70;46.60;;;28.47;31.36;101673.63;5156447;27;20045;-49
2021/06/15 03:50:00;;;;;;;1.38;1.27;;;24.70;46.50;;;28.48;31.20;101677.16;5120527;27;20050;-46
2021/06/15 03:52:35;;;;;;;1.45;1.35;;;24.70;46.60;;;28.48;31.30;101674.47;5137718;27;20175;-49
2021/06/15 03:55:05;;;;;;;1.38;1.27;;;24.70;46.60;;;28.45;31.38;101665.69;5155591;27;20483;-45
2021/06/15 03:57:32;;;;;;;1.50;1.38;;;24.70;46.60;;;28.43;31.42;101662.28;5156596;27;20046;-50
2021/06/15 04:00:02;;;;;;;1.60;1.40;;;24.70;46.60;;;28.42;31.30;101671.31;5137783;27;20050;-47
2021/06/15 04:02:41;;;;;;;1.35;1.25;;;24.70;46.60;;;28.43;31.35;101669.47;5139465;27;20047;-46
2021/06/15 04:05:08;;;;;;;1.35;1.20;;;24.70;46.70;;;28.44;31.67;101682.78;5137749;27;20043;-50
2021/06/15 04:07:35;;;;;;;1.48;1.38;;;24.70;46.70;;;28.41;31.46;101690.25;5156078;27;20047;-48
2021/06/15 04:10:03;;;;;;;1.00;1.00;;;24.70;46.70;;;28.36;31.51;101687.09;5155803;27;20046;-48
2021/06/15 04:12:30;;;;;;;1.20;1.10;;;24.70;46.70;;;28.42;31.34;101695.53;5156197;27;20574;-52
2021/06/15 04:14:58;;;;;;;2.25;1.60;;;24.70;46.70;;;28.40;31.60;101696.59;5137313;27;20074;-52
2021/06/15 04:17:29;;;;;;;1.25;1.15;;;24.60;46.70;;;28.36;31.67;101690.63;5137379;27;20106;-51
2021/06/15 04:19:56;;;;;;;;;;;24.60;46.70;;;28.46;31.49;101688.03;5137455;27;20050;-50
2021/06/15 04:22:27;;;;;;;1.60;1.50;;;24.60;47.30;;;28.40;31.45;101692.09;5156056;27;19922;-46
2021/06/15 04:24:54;;;;;;;1.27;1.17;;;24.60;46.80;;;28.38;31.60;101707.50;5137229;27;20047;-49
2021/06/15 04:27:24;;;;;;;1.80;1.70;;;24.60;46.80;;;28.38;31.59;101718.25;5137105;27;20046;-46
2021/06/15 04:29:51;;;;;;;1.52;1.42;;;24.60;46.80;;;28.38;31.44;101718.25;5155748;27;20038;-44
2021/06/15 04:32:22;;;;;;;1.33;1.23;;;24.60;46.80;;;28.34;31.71;101715.94;5137343;27;20053;-47
2021/06/15 04:34:53;;;;;;;;;;;24.60;46.80;;;28.47;31.25;101730.13;5156288;27;20111;-47
2021/06/15 04:37:20;;;;;;;1.65;1.50;;;24.60;46.90;;;28.42;31.66;101733.19;5137255;27;20321;-49
2021/06/15 04:39:53;;;;;;;1.35;1.25;;;24.60;46.80;;;28.32;31.65;101724.13;5155363;27;20039;-48
2021/06/15 04:42:46;;;;;;;1.98;1.30;;;24.60;46.90;;;28.33;31.82;101735.75;5136798;27;20373;-49
2021/06/15 04:45:13;;;;;;;1.70;1.35;;;24.60;46.90;;;28.32;31.82;101739.41;5136712;27;20058;-48
2021/06/15 04:47:45;;;;;;;1.33;1.20;;;24.60;46.90;;;28.30;31.54;101744.06;5155331;27;20404;-46
2021/06/15 04:50:24;;;;;;;1.30;1.20;;;24.60;47.50;;;28.26;31.63;101728.16;5136927;27;20502;-48
2021/06/15 04:52:52;;;;;;;1.63;1.33;;;24.60;46.90;;;28.29;31.75;101724.38;5137049;27;20039;-47
2021/06/15 04:55:26;;;;;;;1.73;1.63;;;24.50;46.90;;;28.22;31.80;101721.31;5155186;27;20047;-50
2021/06/15 04:57:55;;;;;;;1.33;1.20;;;24.50;46.90;;;28.27;31.53;101735.25;5136937;27;20043;-50
2021/06/15 05:00:26;;;;;;;1.23;1.10;;;24.50;46.90;;;28.26;31.95;101727.31;5136508;27;20049;-48
2021/06/15 05:02:53;;;;;;;1.30;1.20;;;24.50;47.00;;;28.26;31.83;101721.94;5155090;27;20038;-50
2021/06/15 05:05:21;;;;;;;1.63;1.50;;;24.50;47.00;;;28.27;31.85;101718.28;5136808;27;20495;-52
2021/06/15 05:07:59;;;;;;;1.48;1.38;;;24.50;47.00;;;28.25;31.83;101722.91;5135353;27;20049;-48
2021/06/15 05:10:28;;;;;;;1.48;1.38;;;24.50;47.00;;;28.26;31.61;101713.88;5136819;27;20119;-47
2021/06/15 05:12:54;;;;;;;1.40;1.30;;;24.50;47.00;;;28.25;31.69;101726.47;5136560;27;20050;-49
2021/06/15 05:15:26;;;;;;;1.30;1.20;;;24.50;47.00;;;28.26;31.92;101724.63;5136415;27;20047;-50
2021/06/15 05:17:55;;;;;;;1.75;1.30;;;24.50;47.00;;;28.25;31.68;101729.16;5136374;27;20053;-46
2021/06/15 05:20:25;;;;;;;1.60;1.40;;;24.50;47.00;;;28.24;31.91;101731.97;5154828;27;20133;-53
2021/06/15 05:23:12;;;;;;;1.65;1.48;;;24.50;47.00;;;28.24;31.98;101729.28;5155100;27;20230;-48
2021/06/15 05:25:38;;;;;;;1.33;1.23;;;24.50;47.00;;;28.26;31.58;101740.75;5136545;27;20047;-45
2021/06/15 05:28:04;;;;;;;1.63;1.50;;;24.50;47.00;;;28.24;31.90;101740.03;5154503;27;20058;-48
2021/06/15 05:30:29;;;;;;;1.27;1.17;;;24.50;47.00;;;28.24;31.74;101740.03;5154990;27;20051;-49
2021/06/15 05:32:56;;;;;;;1.85;1.55;;;24.50;47.00;;;28.23;31.70;101752.63;5155081;27;20057;-45
2021/06/15 05:35:22;;;;;;;2.03;1.30;;;24.50;47.00;;;28.22;31.95;101753.59;5154547;27;20137;-47
2021/06/15 05:37:49;;;;;;;1.98;1.65;;;24.50;46.90;;;28.25;31.72;101769.50;5135900;27;20039;-46
2021/06/15 05:40:16;;;;;;;1.35;1.25;;;24.60;47.00;;;28.27;31.93;101755.94;5154464;27;20369;-48
2021/06/15 05:42:42;;;;;;;1.40;1.30;;;24.60;47.00;;;28.28;31.56;101747.75;5154850;27;20070;-46
2021/06/15 05:45:09;;;;;;;1.60;1.45;;;24.60;47.00;;;28.28;31.82;101760.31;5154374;27;20042;-51
2021/06/15 05:47:37;;;;;;;1.33;1.23;;;24.60;46.90;;;28.33;31.89;101771.56;5154391;27;20552;-50
2021/06/15 05:50:04;;;;;;;1.55;1.45;;;24.60;46.90;;;28.30;31.80;101760.19;5154365;27;20047;-52
2021/06/15 05:52:30;;;;;;;1.45;1.20;;;24.60;46.80;;;28.36;31.75;101770.47;5154341;27;20043;-49
2021/06/15 05:54:59;;;;;;;1.60;1.50;;;24.60;47.30;;;28.38;31.55;101763.13;5154160;27;20053;-51
2021/06/15 05:57:26;;;;;;;1.40;1.30;;;24.70;46.80;;;28.40;31.54;101767.41;5154183;27;20063;-52
2021/06/15 05:59:53;;;;;;;1.60;1.50;;;24.70;46.70;;;28.42;31.79;101767.31;5154068;27;20046;-51
2021/06/15 06:02:19;;;;;;;1.40;1.30;;;24.70;46.70;;;28.44;31.46;101765.34;5154220;27;20047;-50
2021/06/15 06:10:08;;;;;;;1.27;1.17;;;24.80;46.60;;;28.51;31.43;101780.00;5153999;27;20445;-51
2021/06/15 06:12:34;;;;;;;2.00;1.40;;;24.70;46.50;;;28.50;31.44;101781.00;5153966;27;20042;-53
2021/06/15 06:15:00;;;;;;;1.70;1.50;;;24.80;46.60;;;28.51;31.29;101776.47;5153948;27;20103;-49
2021/06/15 06:17:26;;;;;;;1.05;1.00;;;24.80;46.50;;;28.55;31.24;101785.97;5153798;27;20433;-54
2021/06/15 06:19:53;;;;;;;1.73;1.30;;;24.80;46.50;;;28.55;31.36;101777.91;5157411;27;20047;-54
2021/06/15 06:22:20;;;;;;;1.50;1.35;;;24.80;46.50;;;28.59;31.25;101791.03;5157795;27;20043;-51
2021/06/15 06:24:47;;;;;;;1.73;1.60;;;24.80;46.40;;;28.63;31.45;101791.63;5157657;27;20050;-54
2021/06/15 06:27:13;;;;;;;1.60;1.50;;;24.90;46.50;;;28.73;31.28;101798.00;5157501;27;20066;-51
2021/06/15 06:29:38;;;;;;;1.75;1.52;;;25.00;46.30;;;28.80;31.31;101799.22;5157515;27;20531;-53
2021/06/15 06:32:05;;;;;;;1.40;1.30;;;25.00;46.00;;;28.89;31.15;101800.31;5121967;27;20057;-50
2021/06/15 06:34:31;;;;;;;1.50;1.40;;;25.20;46.00;;;29.03;30.82;101793.78;5157280;27;20106;-49
2021/06/15 06:36:57;;;;;;;1.50;1.40;;;25.30;45.80;;;29.13;30.68;101796.56;5157427;27;20516;-52
2021/06/15 06:39:23;;;;;;;1.42;1.33;;;25.40;45.50;;;29.18;30.37;101792.53;5157221;27;20051;-49
2021/06/15 06:41:49;;;;;;;1.52;1.42;;;25.40;45.40;;;29.26;30.56;101809.94;5157261;27;20438;-46
2021/06/15 06:44:16;;;;;;;1.48;1.38;;;25.40;45.40;;;29.25;30.32;101808.19;5121293;27;20047;-51
2021/06/15 06:46:42;;;;;;;1.95;1.60;;;25.40;45.40;;;29.28;30.65;101822.28;5138436;27;20046;-48
2021/06/15 06:49:08;;;;;;;1.40;1.30;;;25.40;45.40;;;29.26;30.33;101826.09;5157371;27;20042;-48
2021/06/15 06:51:34;;;;;;;2.80;1.80;;;25.40;45.50;;;29.30;30.51;101835.63;5157090;27;20080;-50
2021/06/15 06:54:00;;;;;;;1.40;1.23;;;25.40;45.50;;;29.31;30.33;101826.56;5156903;27;20047;-51
2021/06/15 06:56:29;;;;;;;1.33;1.23;;;25.40;45.40;;;29.37;30.41;101831.44;5156965;27;20426;-44
2021/06/15 06:58:55;;;;;;;1.50;1.40;;;25.50;45.40;;;29.40;30.25;101830.31;5156826;27;20054;-47
2021/06/15 07:01:22;;;;;;;1.77;1.40;;;25.50;45.30;;;29.41;30.24;101824.81;5157017;27;20050;-46
2021/06/15 07:03:50;;;;;;;1.70;1.55;;;25.50;45.30;;;29.46;30.10;101838.75;5156785;27;20046;-49
2021/06/15 07:06:16;;;;;;;1.95;1.75;;;25.50;45.20;;;29.51;30.21;101844.59;5137926;27;20433;-45
2021/06/15 07:08:42;;;;;;;1.40;1.30;;;25.60;45.20;;;29.54;30.03;101841.66;5156641;27;20085;-47
2021/06/15 07:11:08;;;;;;;1.40;1.30;;;25.60;45.10;;;29.58;29.88;101841.41;5157172;27;20047;-45
2021/06/15 07:13:34;;;;;;;1.88;1.30;;;25.60;45.10;;;29.56;30.13;101841.53;5156395;27;20062;-48
2021/06/15 07:16:00;;;;;;;1.83;1.45;;;25.60;45.10;;;29.61;30.12;101842.00;5157252;27;20050;-50
2021/06/15 07:18:26;;;;;;;1.20;1.10;;;25.60;45.10;;;29.64;29.85;101846.28;5156469;27;20046;-50
2021/06/15 07:20:52;;;;;;;1.58;1.20;;;25.70;45.10;;;29.68;29.86;101845.88;5157179;27;20125;-49
2021/06/15 07:23:17;;;;;;;1.77;1.50;;;25.70;45.50;;;29.74;29.90;101845.38;5156485;27;20122;-51
2021/06/15 07:25:44;;;;;;;1.58;1.35;;;25.80;44.90;;;29.77;29.82;101838.00;5156733;27;20179;-51
2021/06/15 07:28:09;;;;;;;1.60;1.38;;;25.80;44.80;;;29.86;29.64;101851.59;5156631;27;20054;-52
2021/06/15 07:30:36;;;;;;;2.17;1.52;;;25.90;44.70;;;29.90;29.53;101846.78;5137062;27;20051;-47
2021/06/15 07:33:01;;;;;;;1.50;1.40;;;25.90;44.60;;;29.98;29.64;101838.06;5156720;27;20066;-51
2021/06/15 07:35:28;;;;;;;1.50;1.40;;;26.00;44.50;;;30.04;29.53;101851.88;5156457;27;20499;-49
2021/06/15 07:37:55;;;;;;;1.48;1.20;;;26.00;44.40;;;30.07;29.34;101848.91;5156676;27;20051;-50
2021/06/15 07:40:24;;;;;;;1.30;1.20;;;26.10;44.50;;;30.07;29.35;101843.53;5156622;27;20043;-50
2021/06/15 07:42:56;;;;;;;1.70;1.25;;;26.00;44.30;;;30.07;29.43;101838.13;5156707;27;20045;-53
2021/06/15 07:45:25;;;;;;;1.23;1.13;;;26.10;44.40;;;30.13;29.42;101843.97;5156616;27;20057;-49
2021/06/15 07:47:51;;;;;;;1.48;1.25;;;26.10;44.30;;;30.22;29.35;101846.75;5138059;27;20043;-52
2021/06/15 07:50:17;;;;;;;2.10;1.60;;;26.20;44.20;;;30.27;29.13;101840.94;5156831;27;20058;-51
2021/06/15 07:52:44;;;;;;;1.77;1.63;;;26.20;44.10;;;30.29;29.17;101849.75;5156269;27;20057;-50
2021/06/15 07:55:12;;;;;;;1.55;1.30;;;26.30;44.10;;;30.32;29.24;101833.28;5156169;27;20054;-49
2021/06/15 07:57:38;;;;;;;1.70;1.30;;;26.30;44.10;;;30.36;29.00;101831.19;5156147;27;20054;-54
2021/06/15 08:00:06;;;;;;;1.67;1.30;;;26.30;44.00;;;30.37;28.99;101836.50;5155912;27;20050;-49
2021/06/15 08:02:39;;;;;;;1.20;1.10;;;26.30;43.90;;;30.40;29.04;101840.75;5155996;27;20055;-50
2021/06/15 08:05:06;;;;;;;1.50;1.40;;;26.30;43.90;;;30.39;29.07;101834.50;5156245;27;20090;-46
2021/06/15 08:07:31;;;;;;;1.63;1.20;;;26.30;43.90;;;30.43;28.87;101835.09;5137187;27;20043;-51
2021/06/15 08:09:57;;;;;;;1.50;1.27;;;26.30;43.80;;;30.42;28.95;101839.66;5136992;27;20088;-51
2021/06/15 08:12:23;;;;;;;3.17;1.55;;;26.30;43.80;;;30.40;28.79;101843.44;5155809;27;20039;-49
2021/06/15 08:14:50;;;;;;;2.13;1.38;;;26.30;43.80;;;30.40;28.92;101848.84;5155714;27;20047;-46
2021/06/15 08:17:16;;;;;;;1.50;1.20;;;26.30;43.80;;;30.43;28.98;101848.59;5155675;27;20058;-53
2021/06/15 08:19:42;;;;;;;1.92;1.48;;;26.40;43.90;;;30.42;28.94;101847.75;5136353;27;20043;-47
2021/06/15 08:22:10;;;;;;;2.25;1.20;;;26.40;43.90;;;30.39;28.88;101847.13;5156152;27;20039;-51
2021/06/15 08:24:36;;;;;;;3.00;1.48;;;26.30;43.80;;;30.39;28.70;101856.09;5155586;27;20133;-50
2021/06/15 08:27:02;;;;;;;1.63;1.52;;;26.30;43.90;;;30.33;28.76;101848.50;5155808;27;20125;-48
2021/06/15 08:29:27;;;;;;;1.35;1.25;;;26.30;43.90;;;30.32;28.82;101843.22;5155848;27;20054;-48
2021/06/15 08:31:53;;;;;;;2.65;1.40;;;26.30;44.00;;;30.30;28.98;101848.75;5136198;27;20047;-48
2021/06/15 08:34:19;;;;;;;1.30;1.20;;;26.20;44.00;;;30.29;28.91;101857.88;5155454;27;20042;-50
2021/06/15 08:36:45;;;;;;;2.25;1.75;;;26.30;44.10;;;30.28;28.71;101845.34;5155635;27;20043;-50
2021/06/15 08:39:12;;;;;;;1.90;1.35;;;26.30;44.10;;;30.34;28.94;101843.94;5155518;27;20042;-48
2021/06/15 08:41:38;;;;;;;2.13;1.27;;;26.30;44.00;;;30.38;28.87;101842.75;5153858;27;20115;-49
2021/06/15 08:44:06;;;;;;;2.25;1.30;;;26.30;43.90;;;30.38;28.96;101832.78;5155143;27;20195;-47
2021/06/15 08:46:32;;;;;;;1.50;0.90;;;26.40;43.80;;;30.43;28.84;101835.09;5154969;27;20185;-51
2021/06/15 08:49:00;;;;;;;2.05;1.50;;;26.40;43.80;;;30.40;28.83;101836.22;5135834;27;20072;-51
2021/06/15 08:51:27;;;;;;;1.77;1.10;;;26.40;43.70;;;30.39;28.84;101836.34;5154961;27;20406;-46
2021/06/15 08:54:03;;;;;;;2.90;1.77;;;26.40;43.70;;;30.38;28.75;101838.19;5155072;27;20039;-51
2021/06/15 08:56:34;;;;;;;2.30;1.30;;;26.40;43.70;;;30.37;28.83;101843.72;5154657;27;20480;-51
2021/06/15 08:59:23;;;;;;;1.45;1.35;;;26.30;43.80;;;30.36;28.80;101834.78;5155603;27;20077;-50
2021/06/15 09:01:58;;;;;;;2.60;1.42;;;26.40;43.90;;;30.38;28.89;101837.34;5136835;27;20432;-52
2021/06/15 09:04:24;;;;;;;1.67;1.40;;;26.40;43.80;;;30.34;28.76;101830.47;5155317;27;20042;-50
2021/06/15 09:06:54;;;;;;;1.98;1.40;;;26.40;43.80;;;30.38;28.90;101835.50;5154997;27;20050;-50
2021/06/15 09:09:20;;;;;;;1.50;1.38;;;26.40;43.80;;;30.44;28.87;101834.97;5119185;27;20502;-50
2021/06/15 09:11:59;;;;;;;1.77;1.27;;;26.50;43.80;;;30.43;28.86;101837.78;5154908;27;20051;-52
2021/06/15 09:14:52;;;;;;;1.23;1.13;;;26.50;43.70;;;30.46;28.83;101843.78;5154865;27;20051;-51
2021/06/15 09:17:28;;;;;;;2.28;1.40;;;26.50;43.60;;;30.46;28.75;101851.03;5135142;27;20051;-48
2021/06/15 09:20:09;;;;;;;2.13;1.20;;;26.50;43.60;;;30.47;28.55;101855.41;5154571;27;20038;-49
2021/06/15 09:22:35;;;;;;;3.92;1.73;;;26.50;43.50;;;30.50;28.76;101851.59;5155409;27;20548;-52
2021/06/15 09:25:05;;;;;;;2.85;1.17;;;26.50;43.60;;;30.47;28.88;101842.78;5154895;27;20099;-50
2021/06/15 09:27:38;;;;;;;1.50;1.40;;;26.50;43.60;;;30.47;28.82;101844.63;5154459;27;20046;-47
2021/06/15 09:30:13;;;;;;;3.97;1.67;;;26.50;43.50;;;30.44;28.72;101842.22;5154561;27;20399;-52
2021/06/15 09:32:41;;;;;;;2.55;1.40;;;26.50;43.50;;;30.48;28.72;101849.88;5154540;27;20529;-48
2021/06/15 09:35:14;;;;;;;2.15;1.25;;;26.60;43.60;;;30.47;28.77;101841.91;5154452;27;20088;-47
2021/06/15 09:37:46;;;;;;;1.77;1.58;;;26.50;43.50;;;30.45;28.70;101844.75;5154698;27;20057;-53
2021/06/15 09:40:28;;;;;;;2.60;1.60;;;26.50;43.50;;;30.47;28.86;101845.50;5154504;27;20080;-54
2021/06/15 09:42:59;;;;;;;2.08;1.30;;;26.60;43.50;;;30.49;28.68;101856.16;5154995;27;20133;-51
2021/06/15 09:45:33;;;;;;;2.67;1.30;;;26.60;43.50;;;30.48;28.69;101846.34;5154663;27;20514;-50
2021/06/15 09:48:35;;;;;;;4.68;1.95;;;26.50;43.50;;;30.48;29.02;101851.72;5154645;27;20046;-49
2021/06/15 09:51:08;;;;;;;4.18;1.63;;;26.60;43.50;;;30.47;28.73;101850.00;5154414;27;20051;-51
2021/06/15 09:53:44;;;;;;;2.20;1.50;;;26.60;43.50;;;30.49;28.59;101848.06;5153576;27;20073;-50
2021/06/15 09:56:12;;;;;;;2.13;1.27;;;26.60;43.50;;;30.50;28.68;101838.94;5154214;27;20087;-55
2021/06/15 09:58:45;;;;;;;2.15;1.40;;;26.60;43.40;;;30.55;28.85;101846.66;5154078;27;20042;-47
2021/06/15 10:01:29;;;;;;;2.90;1.50;;;26.70;43.40;;;30.57;28.60;101842.84;5154202;27;20043;-50
2021/06/15 10:04:18;;;;;;;1.77;1.30;;;26.70;43.40;;;30.60;28.61;101844.41;5154029;27;20380;-52
2021/06/15 10:06:53;;;;;;;3.30;1.40;;;26.70;43.30;;;30.62;28.56;101848.69;5154482;27;20081;-48
2021/06/15 10:09:31;;;;;;;2.95;1.63;;;26.80;43.20;;;30.65;28.58;101848.38;5154081;27;20046;-49
2021/06/15 10:12:00;;;;;;;4.15;1.63;;;26.80;43.20;;;30.67;28.57;101845.56;5154056;27;20077;-44
2021/06/15 10:14:27;;;;;;;2.28;1.55;;;26.80;43.20;;;30.73;28.46;101857.69;5135674;27;20133;-50
2021/06/15 10:16:55;;;;;;;7.13;2.42;;;26.80;43.10;;;30.74;28.36;101859.38;5153900;27;20050;-48
2021/06/15 10:19:24;;;;;;;2.10;1.27;;;26.80;43.00;;;30.74;28.23;101854.84;5153906;27;20086;-49
2021/06/15 10:21:51;;;;;;;3.53;1.70;;;26.80;43.00;;;30.72;28.36;101851.41;5153892;27;20034;-48
2021/06/15 10:24:24;;;;;;;3.22;1.73;;;26.80;43.00;;;30.72;28.53;101846.00;5153991;27;20133;-45
2021/06/15 10:26:52;;;;;;;2.92;1.48;;;26.80;43.10;;;30.71;28.45;101838.91;5154136;27;20039;-49
2021/06/15 10:29:19;;;;;;;2.60;1.60;;;26.80;43.00;;;30.73;28.38;101842.31;5153866;27;20055;-48
2021/06/15 10:31:49;;;;;;;3.13;1.95;;;26.80;43.00;;;30.77;28.40;101851.00;5153837;27;20099;-47